EIN40G EIDW-LIRF
Flight info
| Callsign | EIN40G |
|---|---|
| Flight time | N/A |
| Altitude | 37000 |
| Route | PESIT2J PESIT DCT BAKUR DCT GUBJE DCT DAVAZ DCT AVZAC DCT ICOSA DCT RUHUN DCT UNZIB DCT NUCHU DCT BOGNA UL612 OGULO DCT OKASI DCT OKEKO DCT MOU DCT MADIV DCT MOKIP DCT TUFTA DCT KOGAS DCT MEDAM DCT NITAM DCT MOGBO DCT ELB/N0424F380 DCT ELKAP |
| Aircraft | A21N/M-SDE2E3FGHIJ1RWXY/LB1 |
Departure
| Time | 2026-05-04 13:52 |
|---|---|
| Airport | Dublin Airport (EIDW) |
Arrival
| Time | N/A |
|---|---|
| Airport | Rome–Fiumicino Leonardo da Vinci International Airport (LIRF) |
| Time | Latitude | Longitude | Altitude | Speed | Heading |
|---|---|---|---|---|---|
| 2026-05-04 13:33 | 53.42414 | -6.24440 | 207 ft | 0 kts | 135° |
| 2026-05-04 13:43 | 53.42415 | -6.24441 | 207 ft | 1 kts | 135° |
| 2026-05-04 13:43 | 53.42426 | -6.24459 | 208 ft | 2 kts | 136° |
| 2026-05-04 13:43 | 53.42437 | -6.24479 | 208 ft | 2 kts | 136° |
| 2026-05-04 13:43 | 53.42451 | -6.24496 | 209 ft | 2 kts | 167° |
| 2026-05-04 13:44 | 53.42468 | -6.24496 | 210 ft | 1 kts | 198° |
| 2026-05-04 13:44 | 53.42474 | -6.24491 | 210 ft | 1 kts | 208° |
| 2026-05-04 13:44 | 53.42477 | -6.24489 | 210 ft | 0 kts | 206° |
| 2026-05-04 13:46 | 53.42463 | -6.24516 | 209 ft | 5 kts | 235° |
| 2026-05-04 13:46 | 53.42430 | -6.24600 | 205 ft | 10 kts | 239° |
| 2026-05-04 13:46 | 53.42378 | -6.24734 | 202 ft | 14 kts | 236° |
| 2026-05-04 13:46 | 53.42301 | -6.24876 | 202 ft | 14 kts | 225° |
| 2026-05-04 13:47 | 53.42229 | -6.25009 | 203 ft | 14 kts | 231° |
| 2026-05-04 13:47 | 53.42203 | -6.25181 | 205 ft | 12 kts | 278° |
| 2026-05-04 13:47 | 53.42215 | -6.25335 | 208 ft | 10 kts | 276° |
| 2026-05-04 13:47 | 53.42223 | -6.25466 | 211 ft | 10 kts | 276° |
| 2026-05-04 13:48 | 53.42233 | -6.25640 | 211 ft | 16 kts | 274° |
| 2026-05-04 13:48 | 53.42248 | -6.25894 | 212 ft | 20 kts | 275° |
| 2026-05-04 13:48 | 53.42264 | -6.26172 | 215 ft | 20 kts | 276° |
| 2026-05-04 13:48 | 53.42279 | -6.26420 | 219 ft | 16 kts | 275° |
| 2026-05-04 13:49 | 53.42291 | -6.26626 | 224 ft | 14 kts | 276° |
| 2026-05-04 13:49 | 53.42300 | -6.26815 | 226 ft | 12 kts | 274° |
| 2026-05-04 13:49 | 53.42307 | -6.26977 | 227 ft | 12 kts | 274° |
| 2026-05-04 13:49 | 53.42314 | -6.27147 | 228 ft | 12 kts | 275° |
| 2026-05-04 13:50 | 53.42322 | -6.27308 | 230 ft | 11 kts | 275° |
| 2026-05-04 13:50 | 53.42331 | -6.27465 | 231 ft | 15 kts | 277° |
| 2026-05-04 13:50 | 53.42350 | -6.27765 | 233 ft | 24 kts | 275° |
| 2026-05-04 13:50 | 53.42355 | -6.28059 | 236 ft | 14 kts | 249° |
| 2026-05-04 13:51 | 53.42276 | -6.28060 | 235 ft | 14 kts | 124° |
| 2026-05-04 13:51 | 53.42215 | -6.27890 | 234 ft | 18 kts | 113° |
| 2026-05-04 13:51 | 53.42143 | -6.27076 | 227 ft | 107 kts | 96° |
| 2026-05-04 13:51 | 53.42041 | -6.25214 | 245 ft | 173 kts | 94° |
| 2026-05-04 13:52 | 53.41404 | -6.20564 | 1913 ft | 189 kts | 134° |
| 2026-05-04 13:52 | 53.40018 | -6.19626 | 2699 ft | 197 kts | 175° |
| 2026-05-04 13:52 | 53.38381 | -6.19603 | 3340 ft | 212 kts | 180° |
| 2026-05-04 13:53 | 53.36615 | -6.19542 | 3908 ft | 233 kts | 177° |
| 2026-05-04 13:53 | 53.34644 | -6.19209 | 4561 ft | 254 kts | 168° |
| 2026-05-04 13:53 | 53.32635 | -6.18055 | 5297 ft | 271 kts | 154° |
| 2026-05-04 13:54 | 53.28294 | -6.15731 | 7318 ft | 283 kts | 167° |
| 2026-05-04 13:54 | 53.26018 | -6.14818 | 8371 ft | 287 kts | 166° |
| 2026-05-04 13:54 | 53.21377 | -6.12806 | 10408 ft | 294 kts | 164° |
| 2026-05-04 13:55 | 53.18972 | -6.11714 | 11117 ft | 310 kts | 164° |
| 2026-05-04 13:55 | 53.13715 | -6.09290 | 12526 ft | 337 kts | 163° |
| 2026-05-04 13:55 | 53.10983 | -6.08026 | 13448 ft | 342 kts | 163° |
| 2026-05-04 13:56 | 53.08202 | -6.06738 | 14374 ft | 346 kts | 163° |
| 2026-05-04 13:56 | 53.05368 | -6.05430 | 15259 ft | 351 kts | 163° |
| 2026-05-04 13:56 | 52.99663 | -6.02795 | 16929 ft | 361 kts | 162° |
| 2026-05-04 13:57 | 52.96805 | -6.01478 | 17726 ft | 365 kts | 162° |
| 2026-05-04 13:57 | 52.93996 | -6.00186 | 18474 ft | 370 kts | 162° |
| 2026-05-04 13:58 | 52.85332 | -5.96212 | 20584 ft | 383 kts | 162° |
| 2026-05-04 13:58 | 52.79539 | -5.93564 | 21925 ft | 390 kts | 161° |
| 2026-05-04 13:58 | 52.76569 | -5.92209 | 22569 ft | 393 kts | 161° |
| 2026-05-04 13:59 | 52.73586 | -5.90849 | 23188 ft | 397 kts | 161° |
| 2026-05-04 13:59 | 52.70677 | -5.89526 | 23761 ft | 400 kts | 160° |
| 2026-05-04 13:59 | 52.64546 | -5.86742 | 24931 ft | 406 kts | 160° |
| 2026-05-04 14:00 | 52.61285 | -5.85265 | 25490 ft | 410 kts | 160° |
| 2026-05-04 14:00 | 52.54665 | -5.82270 | 26563 ft | 417 kts | 160° |
| 2026-05-04 14:00 | 52.51260 | -5.80737 | 27095 ft | 420 kts | 160° |
| 2026-05-04 14:01 | 52.47789 | -5.79175 | 27601 ft | 423 kts | 159° |
| 2026-05-04 14:01 | 52.44351 | -5.77630 | 28097 ft | 426 kts | 159° |
| 2026-05-04 14:01 | 52.37452 | -5.74483 | 28989 ft | 432 kts | 158° |
| 2026-05-04 14:02 | 52.34017 | -5.72804 | 29402 ft | 434 kts | 157° |
| 2026-05-04 14:02 | 52.30590 | -5.71119 | 29823 ft | 437 kts | 157° |
| 2026-05-04 14:02 | 52.27050 | -5.69391 | 30217 ft | 440 kts | 157° |
| 2026-05-04 14:02 | 52.23632 | -5.67562 | 30599 ft | 440 kts | 154° |
| 2026-05-04 14:03 | 52.20248 | -5.65361 | 30923 ft | 441 kts | 151° |
| 2026-05-04 14:03 | 52.16903 | -5.63097 | 31313 ft | 442 kts | 151° |
| 2026-05-04 14:03 | 52.13431 | -5.60753 | 31693 ft | 443 kts | 151° |
| 2026-05-04 14:03 | 52.09985 | -5.58438 | 32138 ft | 441 kts | 151° |
| 2026-05-04 14:04 | 52.03152 | -5.53843 | 33008 ft | 437 kts | 150° |
| 2026-05-04 14:04 | 51.99942 | -5.51547 | 33363 ft | 436 kts | 150° |
| 2026-05-04 14:04 | 51.96625 | -5.49120 | 33736 ft | 434 kts | 149° |
| 2026-05-04 14:05 | 51.90736 | -5.42998 | 34303 ft | 424 kts | 134° |
| 2026-05-04 14:05 | 51.88347 | -5.39208 | 34587 ft | 419 kts | 127° |
| 2026-05-04 14:05 | 51.86261 | -5.34897 | 34802 ft | 415 kts | 121° |
| 2026-05-04 14:06 | 51.84573 | -5.30260 | 35029 ft | 413 kts | 114° |
| 2026-05-04 14:06 | 51.83122 | -5.25339 | 35200 ft | 413 kts | 112° |
| 2026-05-04 14:06 | 51.81717 | -5.20419 | 35396 ft | 414 kts | 112° |
| 2026-05-04 14:06 | 51.80276 | -5.15380 | 35557 ft | 415 kts | 112° |
| 2026-05-04 14:07 | 51.79034 | -5.10569 | 35689 ft | 416 kts | 109° |
| 2026-05-04 14:07 | 51.77946 | -5.05544 | 35823 ft | 417 kts | 106° |
| 2026-05-04 14:07 | 51.77049 | -5.00419 | 35965 ft | 419 kts | 102° |
| 2026-05-04 14:07 | 51.76327 | -4.95036 | 36095 ft | 419 kts | 100° |
| 2026-05-04 14:08 | 51.75702 | -4.89774 | 36243 ft | 421 kts | 99° |
| 2026-05-04 14:08 | 51.75070 | -4.84458 | 36385 ft | 422 kts | 99° |
| 2026-05-04 14:08 | 51.74412 | -4.78932 | 36494 ft | 424 kts | 100° |
| 2026-05-04 14:08 | 51.73742 | -4.73331 | 36618 ft | 426 kts | 100° |
| 2026-05-04 14:09 | 51.72413 | -4.62324 | 36847 ft | 429 kts | 100° |
| 2026-05-04 14:09 | 51.71735 | -4.56747 | 36966 ft | 430 kts | 100° |
| 2026-05-04 14:10 | 51.70385 | -4.45702 | 37004 ft | 432 kts | 100° |
| 2026-05-04 14:10 | 51.69039 | -4.34783 | 37008 ft | 434 kts | 101° |
| 2026-05-04 14:11 | 51.67740 | -4.24341 | 37003 ft | 435 kts | 101° |
| 2026-05-04 14:11 | 51.65733 | -4.08360 | 37000 ft | 435 kts | 101° |
| 2026-05-04 14:12 | 51.64360 | -3.97528 | 36993 ft | 435 kts | 101° |
| 2026-05-04 14:13 | 51.62291 | -3.81370 | 36997 ft | 435 kts | 101° |
| 2026-05-04 14:13 | 51.60884 | -3.70500 | 36999 ft | 436 kts | 102° |
| 2026-05-04 14:14 | 51.59551 | -3.59613 | 36999 ft | 436 kts | 98° |
| 2026-05-04 14:14 | 51.58517 | -3.43540 | 37003 ft | 436 kts | 95° |
| 2026-05-04 14:15 | 51.57296 | -3.22810 | 37004 ft | 437 kts | 96° |
| 2026-05-04 14:16 | 51.56338 | -3.07085 | 37003 ft | 437 kts | 96° |
| 2026-05-04 14:17 | 51.55352 | -2.91262 | 36997 ft | 438 kts | 96° |
| 2026-05-04 14:18 | 51.54356 | -2.75614 | 36995 ft | 438 kts | 96° |
| 2026-05-04 14:19 | 51.53019 | -2.55124 | 36999 ft | 439 kts | 96° |
| 2026-05-04 14:19 | 51.52325 | -2.44706 | 36993 ft | 440 kts | 96° |
| 2026-05-04 14:20 | 51.51617 | -2.34220 | 36997 ft | 440 kts | 97° |
| 2026-05-04 14:20 | 51.50921 | -2.24033 | 36992 ft | 441 kts | 97° |
| 2026-05-04 14:21 | 51.49820 | -2.08235 | 36989 ft | 441 kts | 97° |
| 2026-05-04 14:21 | 51.49063 | -1.97555 | 36991 ft | 442 kts | 97° |
| 2026-05-04 14:22 | 51.48275 | -1.86554 | 36994 ft | 442 kts | 97° |
| 2026-05-04 14:22 | 51.47160 | -1.75739 | 37001 ft | 442 kts | 105° |
| 2026-05-04 14:23 | 51.44685 | -1.65423 | 36998 ft | 440 kts | 118° |
| 2026-05-04 14:23 | 51.42968 | -1.60706 | 37000 ft | 440 kts | 124° |
| 2026-05-04 14:24 | 51.38794 | -1.52178 | 36996 ft | 439 kts | 130° |
| 2026-05-04 14:24 | 51.34437 | -1.43969 | 36989 ft | 439 kts | 131° |
| 2026-05-04 14:25 | 51.30020 | -1.35647 | 36992 ft | 438 kts | 130° |
| 2026-05-04 14:25 | 51.23770 | -1.23884 | 36992 ft | 438 kts | 131° |
| 2026-05-04 14:26 | 51.19533 | -1.15933 | 36990 ft | 439 kts | 131° |
| 2026-05-04 14:26 | 51.15169 | -1.07770 | 36987 ft | 439 kts | 131° |
| 2026-05-04 14:27 | 51.10805 | -0.99633 | 36994 ft | 438 kts | 131° |
| 2026-05-04 14:27 | 51.08629 | -0.95584 | 36756 ft | 438 kts | 131° |
| 2026-05-04 14:27 | 51.06478 | -0.91590 | 36876 ft | 439 kts | 131° |
| 2026-05-04 14:28 | 51.02267 | -0.83787 | 36960 ft | 440 kts | 131° |
| 2026-05-04 14:28 | 50.98039 | -0.75974 | 36972 ft | 440 kts | 132° |
| 2026-05-04 14:29 | 50.89723 | -0.60680 | 36971 ft | 440 kts | 132° |
| 2026-05-04 14:30 | 50.85694 | -0.53304 | 36971 ft | 440 kts | 132° |
| 2026-05-04 14:31 | 50.79544 | -0.42087 | 36973 ft | 440 kts | 132° |
| 2026-05-04 14:32 | 50.70918 | -0.27184 | 36983 ft | 438 kts | 139° |
| 2026-05-04 14:32 | 50.66005 | -0.20823 | 36986 ft | 436 kts | 146° |
| 2026-05-04 14:33 | 50.60643 | -0.15133 | 36977 ft | 435 kts | 148° |
| 2026-05-04 14:33 | 50.55264 | -0.09509 | 36976 ft | 435 kts | 148° |
| 2026-05-04 14:34 | 50.49954 | -0.03969 | 36972 ft | 435 kts | 148° |
| 2026-05-04 14:34 | 50.44642 | 0.01557 | 36965 ft | 435 kts | 148° |
| 2026-05-04 14:35 | 50.39424 | 0.06963 | 36966 ft | 435 kts | 148° |
| 2026-05-04 14:35 | 50.34169 | 0.12392 | 36964 ft | 434 kts | 148° |
| 2026-05-04 14:36 | 50.28909 | 0.17812 | 36967 ft | 434 kts | 148° |
| 2026-05-04 14:36 | 50.23685 | 0.23179 | 36965 ft | 434 kts | 148° |
| 2026-05-04 14:37 | 50.18507 | 0.28494 | 36963 ft | 434 kts | 148° |
| 2026-05-04 14:37 | 50.13240 | 0.33911 | 36966 ft | 435 kts | 148° |
| 2026-05-04 14:38 | 50.08010 | 0.39279 | 36966 ft | 434 kts | 148° |
| 2026-05-04 14:38 | 50.02787 | 0.44618 | 36960 ft | 434 kts | 148° |
| 2026-05-04 14:39 | 49.97611 | 0.49900 | 36965 ft | 433 kts | 148° |
| 2026-05-04 14:39 | 49.92320 | 0.55282 | 36914 ft | 433 kts | 148° |
| 2026-05-04 14:40 | 49.87201 | 0.60494 | 37040 ft | 432 kts | 147° |
| 2026-05-04 14:40 | 49.84733 | 0.63257 | 36986 ft | 433 kts | 144° |
| 2026-05-04 14:40 | 49.80039 | 0.69130 | 36961 ft | 432 kts | 143° |
| 2026-05-04 14:41 | 49.75271 | 0.75124 | 36949 ft | 431 kts | 143° |
| 2026-05-04 14:42 | 49.65604 | 0.87230 | 36931 ft | 432 kts | 143° |
| 2026-05-04 14:42 | 49.60716 | 0.93327 | 36936 ft | 432 kts | 143° |
| 2026-05-04 14:43 | 49.55707 | 0.99558 | 36930 ft | 432 kts | 143° |
| 2026-05-04 14:43 | 49.50803 | 1.05645 | 36932 ft | 432 kts | 143° |
| 2026-05-04 14:44 | 49.45919 | 1.11690 | 36937 ft | 432 kts | 143° |
| 2026-05-04 14:44 | 49.41103 | 1.17633 | 36931 ft | 431 kts | 143° |
| 2026-05-04 14:45 | 49.36187 | 1.23689 | 36936 ft | 431 kts | 143° |
| 2026-05-04 14:45 | 49.31311 | 1.29679 | 36928 ft | 431 kts | 144° |
| 2026-05-04 14:46 | 49.26382 | 1.35717 | 36925 ft | 432 kts | 144° |
| 2026-05-04 14:46 | 49.21386 | 1.41818 | 36916 ft | 432 kts | 144° |
| 2026-05-04 14:47 | 49.16427 | 1.47861 | 36913 ft | 431 kts | 144° |
| 2026-05-04 14:47 | 49.11479 | 1.53876 | 36909 ft | 431 kts | 144° |
| 2026-05-04 14:48 | 49.06433 | 1.59993 | 36912 ft | 430 kts | 144° |
| 2026-05-04 14:48 | 49.01360 | 1.66125 | 36914 ft | 430 kts | 145° |
| 2026-05-04 14:49 | 48.96534 | 1.71944 | 36923 ft | 430 kts | 145° |
| 2026-05-04 14:49 | 48.91594 | 1.77884 | 36927 ft | 429 kts | 145° |
| 2026-05-04 14:50 | 48.86793 | 1.83643 | 36930 ft | 429 kts | 145° |
| 2026-05-04 14:50 | 48.82017 | 1.89355 | 36932 ft | 428 kts | 145° |
| 2026-05-04 14:51 | 48.77191 | 1.95117 | 36682 ft | 428 kts | 145° |
| 2026-05-04 14:51 | 48.74777 | 1.97994 | 36836 ft | 429 kts | 145° |
| 2026-05-04 14:51 | 48.72287 | 2.00955 | 36894 ft | 431 kts | 145° |
| 2026-05-04 14:52 | 48.67359 | 2.06806 | 36934 ft | 432 kts | 145° |
| 2026-05-04 14:52 | 48.62302 | 2.12794 | 36941 ft | 432 kts | 145° |
| 2026-05-04 14:53 | 48.57387 | 2.18743 | 36941 ft | 433 kts | 142° |
| 2026-05-04 14:53 | 48.52869 | 2.25285 | 36933 ft | 434 kts | 138° |
| 2026-05-04 14:54 | 48.48366 | 2.32124 | 36927 ft | 434 kts | 138° |
| 2026-05-04 14:54 | 48.43740 | 2.39125 | 36930 ft | 434 kts | 138° |
| 2026-05-04 14:55 | 48.39078 | 2.46162 | 36923 ft | 434 kts | 138° |
| 2026-05-04 14:55 | 48.34430 | 2.53147 | 36921 ft | 434 kts | 139° |
| 2026-05-04 14:56 | 48.29326 | 2.59732 | 36919 ft | 430 kts | 146° |
| 2026-05-04 14:56 | 48.23896 | 2.65104 | 36924 ft | 425 kts | 154° |
| 2026-05-04 14:57 | 48.18332 | 2.69739 | 36919 ft | 425 kts | 155° |
| 2026-05-04 14:57 | 48.12771 | 2.74244 | 36927 ft | 424 kts | 155° |
| 2026-05-04 14:58 | 48.06794 | 2.78782 | 36934 ft | 422 kts | 159° |
| 2026-05-04 14:58 | 48.00740 | 2.82640 | 36936 ft | 422 kts | 160° |
| 2026-05-04 14:59 | 47.94606 | 2.86544 | 36944 ft | 422 kts | 160° |
| 2026-05-04 15:00 | 47.85703 | 2.92186 | 36945 ft | 423 kts | 160° |